createdAt,value
2019-02-17T00:02:33.880Z,81.4
2019-02-17T00:07:33.684Z,81.1
2019-02-17T00:12:33.642Z,81
2019-02-17T00:17:33.873Z,81.6
2019-02-17T00:22:33.832Z,81.7
2019-02-17T00:27:33.790Z,82.1
2019-02-17T00:32:33.862Z,82.5
2019-02-17T00:37:33.652Z,82.1
2019-02-17T00:42:35.747Z,82
2019-02-17T00:47:35.740Z,84.2
2019-02-17T00:52:35.762Z,83.7
2019-02-17T00:57:36.001Z,82.6
2019-02-17T01:02:35.942Z,82.2
2019-02-17T01:07:35.772Z,82.7
2019-02-17T01:12:35.779Z,83.3
2019-02-17T01:17:35.771Z,82.6
2019-02-17T01:22:35.803Z,82.4
2019-02-17T01:27:35.782Z,82
2019-02-17T01:32:35.728Z,83
2019-02-17T01:37:35.730Z,84.3
2019-02-17T01:42:35.990Z,83.3
2019-02-17T01:47:35.782Z,83.1
2019-02-17T01:52:35.806Z,82.7
2019-02-17T01:57:35.810Z,82.9
2019-02-17T02:02:35.760Z,82.2
2019-02-17T02:07:35.910Z,83
2019-02-17T02:12:35.825Z,82.5
2019-02-17T02:17:36.019Z,82.5
2019-02-17T02:22:35.969Z,84.1
2019-02-17T02:27:35.943Z,83.3
2019-02-17T02:32:36.216Z,85.4
2019-02-17T02:37:35.957Z,83.6
2019-02-17T02:42:35.822Z,82.9
2019-02-17T02:47:35.811Z,85.7
2019-02-17T02:52:35.804Z,84.2
2019-02-17T02:57:35.831Z,84.2
2019-02-17T03:02:36.023Z,84.7
2019-02-17T03:07:35.943Z,84.2
2019-02-17T03:12:35.985Z,83.6
2019-02-17T03:17:36.030Z,83.4
2019-02-17T03:22:35.947Z,83
2019-02-17T03:27:35.944Z,84.6
2019-02-17T03:32:35.847Z,83.9
2019-02-17T03:37:35.828Z,83.5
2019-02-17T03:42:35.844Z,83.9
2019-02-17T03:47:35.845Z,83.3
2019-02-17T03:52:35.885Z,83.5
2019-02-17T03:57:35.833Z,82.8
2019-02-17T04:02:35.888Z,84.1
2019-02-17T04:07:35.846Z,83.3
2019-02-17T04:12:35.852Z,83
2019-02-17T04:17:35.875Z,83.2
2019-02-17T04:22:35.877Z,83.5
2019-02-17T04:27:35.996Z,83.7
2019-02-17T04:32:35.898Z,83.2
2019-02-17T04:37:35.879Z,82.9
2019-02-17T04:42:35.887Z,83.1
2019-02-17T04:47:35.885Z,83.5
2019-02-17T04:52:35.867Z,83.3
2019-02-17T04:57:35.892Z,83.1
2019-02-17T05:02:35.889Z,82.6
2019-02-17T05:07:35.872Z,83
2019-02-17T05:12:35.887Z,83.2
2019-02-17T05:17:35.900Z,82.8
2019-02-17T05:22:39.694Z,83.1
2019-02-17T05:27:36.095Z,84.1
2019-02-17T05:32:35.915Z,83.1
2019-02-17T05:37:36.030Z,82.8
2019-02-17T05:42:36.200Z,83.2
2019-02-17T05:47:35.907Z,84.2
2019-02-17T05:52:35.891Z,84
2019-02-17T05:57:36.107Z,83.8
2019-02-17T06:02:36.172Z,84.3
2019-02-17T06:07:36.025Z,85.1
2019-02-17T06:12:35.945Z,83.5
2019-02-17T06:17:35.923Z,83.4
2019-02-17T06:22:36.020Z,84.1
2019-02-17T06:27:35.935Z,84.7
2019-02-17T06:32:35.916Z,85.1
2019-02-17T06:37:35.945Z,84.8
2019-02-17T06:42:35.944Z,84.6
2019-02-17T06:47:35.960Z,85.6
2019-02-17T06:52:35.951Z,86.8
2019-02-17T06:57:35.955Z,85.4
2019-02-17T07:02:35.955Z,85.3
2019-02-17T07:07:36.161Z,84.6
2019-02-17T07:12:35.940Z,85.1
2019-02-17T07:17:36.046Z,85.2
2019-02-17T07:22:36.126Z,85.1
2019-02-17T07:27:36.082Z,84.9
2019-02-17T07:32:35.982Z,84.9
2019-02-17T07:37:35.971Z,83.6
2019-02-17T07:42:35.969Z,83.8
2019-02-17T07:47:36.198Z,83.5
2019-02-17T07:52:35.988Z,82.2
2019-02-17T07:57:35.973Z,82.1
2019-02-17T08:02:36.219Z,81.6
2019-02-17T08:07:36.013Z,80.7
2019-02-17T08:12:35.985Z,79.5
2019-02-17T08:17:35.993Z,78.9
2019-02-17T08:22:36.071Z,79.5
2019-02-17T08:27:36.179Z,79.5
2019-02-17T08:32:36.053Z,77.5
2019-02-17T08:37:36.339Z,77.1
2019-02-17T08:42:38.826Z,76.7
2019-02-17T08:47:36.004Z,75.4
2019-02-17T08:52:36.004Z,75.4
2019-02-17T08:57:38.313Z,74.6
2019-02-17T09:02:35.992Z,72.1
2019-02-17T09:07:36.027Z,72.7
2019-02-17T09:12:36.220Z,71.8
2019-02-17T09:17:36.054Z,70.3
2019-02-17T09:22:36.427Z,68.9
2019-02-17T09:27:36.947Z,69.7
2019-02-17T09:32:36.126Z,67.8
2019-02-17T09:37:36.317Z,68.9
2019-02-17T09:42:36.062Z,67.9
2019-02-17T09:47:36.282Z,67.2
2019-02-17T09:52:36.074Z,67.2
2019-02-17T09:57:36.444Z,65.3
2019-02-17T10:02:36.206Z,65.6
2019-02-17T10:07:36.091Z,65
2019-02-17T10:12:36.062Z,61
2019-02-17T10:17:36.086Z,62.6
2019-02-17T10:22:36.056Z,59.5
2019-02-17T10:27:36.084Z,60.7
2019-02-17T10:32:39.429Z,60.7
2019-02-17T10:37:36.142Z,59.2
2019-02-17T10:42:36.178Z,61.4
2019-02-17T10:47:36.024Z,61.1
2019-02-17T10:52:36.072Z,62.1
2019-02-17T10:57:36.093Z,60.3
2019-02-17T11:02:46.260Z,59.6
2019-02-17T11:07:36.066Z,59
2019-02-17T11:12:36.177Z,58.2
2019-02-17T11:17:36.044Z,60.7
2019-02-17T11:22:36.101Z,59.1
2019-02-17T11:27:36.098Z,58.3
2019-02-17T11:32:36.118Z,59.3
2019-02-17T11:37:36.091Z,58.8
2019-02-17T11:42:36.177Z,59.4
2019-02-17T11:47:36.124Z,57.6
2019-02-17T11:52:36.112Z,57.7
2019-02-17T11:57:36.113Z,58.5
2019-02-17T12:02:36.144Z,58.5
2019-02-17T12:07:36.304Z,59.3
2019-02-17T12:12:36.109Z,58.9
2019-02-17T12:17:36.184Z,59
2019-02-17T12:22:36.115Z,57.4
2019-02-17T12:27:36.137Z,57.9
2019-02-17T12:32:36.137Z,56.1
2019-02-17T12:37:36.122Z,56.3
2019-02-17T12:42:36.636Z,56.3
2019-02-17T12:47:36.130Z,55.4
2019-02-17T12:52:36.127Z,53.7
2019-02-17T12:57:36.158Z,50.1
2019-02-17T13:02:36.166Z,51.4
2019-02-17T13:07:36.163Z,48.5
2019-02-17T13:12:36.292Z,51.8
2019-02-17T13:17:36.146Z,50.5
2019-02-17T13:22:36.187Z,48.8
2019-02-17T13:27:36.154Z,51
2019-02-17T13:32:36.171Z,52.2
2019-02-17T13:37:36.230Z,49.8
2019-02-17T13:42:36.205Z,51.7
2019-02-17T13:47:36.138Z,49.9
2019-02-17T13:52:36.198Z,50.2
2019-02-17T13:57:36.299Z,49.9
2019-02-17T14:02:36.296Z,49.9
2019-02-17T14:07:36.347Z,49.6
2019-02-17T14:12:36.248Z,49.6
2019-02-17T14:17:36.189Z,46.7
2019-02-17T14:22:36.134Z,47.9
2019-02-17T14:27:36.174Z,47
2019-02-17T14:32:36.222Z,47.5
2019-02-17T14:37:36.172Z,46.6
2019-02-17T14:42:36.191Z,49.5
2019-02-17T14:47:36.191Z,49.4
2019-02-17T14:52:36.207Z,49.5
2019-02-17T14:57:36.341Z,47.3
2019-02-17T15:02:36.207Z,50.1
2019-02-17T15:07:36.298Z,48.6
2019-02-17T15:12:36.526Z,51.6
2019-02-17T15:17:36.215Z,50
2019-02-17T15:22:36.197Z,50
2019-02-17T15:27:36.245Z,48.8
2019-02-17T15:32:36.230Z,49.6
2019-02-17T15:37:36.249Z,49.4
2019-02-17T15:42:36.264Z,51
2019-02-17T15:47:36.303Z,50.9
2019-02-17T15:52:36.268Z,50.9
2019-02-17T15:57:36.243Z,51.9
2019-02-17T16:02:36.359Z,55.2
2019-02-17T16:07:36.976Z,55.9
2019-02-17T16:12:36.521Z,57.8
2019-02-17T16:17:36.453Z,58.7
2019-02-17T16:22:37.604Z,60.6
2019-02-17T16:27:36.965Z,60.4
2019-02-17T16:32:36.798Z,60.8
2019-02-17T16:37:36.399Z,61.7
2019-02-17T16:42:37.223Z,63.2
2019-02-17T16:47:36.281Z,65.6
2019-02-17T16:52:36.699Z,65.1
2019-02-17T16:57:37.338Z,65.9
2019-02-17T17:02:36.447Z,65.4
2019-02-17T17:07:36.320Z,66.1
2019-02-17T17:12:36.286Z,66.2
2019-02-17T17:17:37.152Z,66
2019-02-17T17:22:36.293Z,68.1
2019-02-17T17:27:37.359Z,67.5
2019-02-17T17:32:36.270Z,69.6
2019-02-17T17:37:36.289Z,71.2
2019-02-17T17:42:36.329Z,70.9
2019-02-17T17:47:36.306Z,69.9
2019-02-17T17:52:36.308Z,72.2
2019-02-17T17:57:36.255Z,71.1
2019-02-17T18:02:36.307Z,73.1
2019-02-17T18:07:36.312Z,72
2019-02-17T18:12:36.434Z,72
2019-02-17T18:17:36.412Z,72.1
2019-02-17T18:22:36.702Z,72.4
2019-02-17T18:27:36.318Z,72.1
2019-02-17T18:32:36.329Z,72.7
2019-02-17T18:37:36.462Z,73.6
2019-02-17T18:42:37.398Z,72.1
2019-02-17T18:47:37.619Z,74.3
2019-02-17T18:52:36.326Z,77
2019-02-17T18:57:36.571Z,74.6
2019-02-17T19:02:36.530Z,75.6
2019-02-17T19:07:36.567Z,74.9
2019-02-17T19:12:36.333Z,74.9
2019-02-17T19:17:36.401Z,74.4
2019-02-17T19:22:36.671Z,74.2
2019-02-17T19:27:36.507Z,74.3
2019-02-17T19:32:36.366Z,75
2019-02-17T19:37:37.047Z,76.2
2019-02-17T19:42:36.593Z,76
2019-02-17T19:47:36.710Z,76.2
2019-02-17T19:52:36.331Z,77.3
2019-02-17T19:57:36.554Z,77.6
2019-02-17T20:02:36.455Z,77.2
2019-02-17T20:07:38.448Z,76.3
2019-02-17T20:12:36.374Z,75.9
2019-02-17T20:17:36.376Z,76.4
2019-02-17T20:22:36.830Z,76.6
2019-02-17T20:27:36.434Z,77.5
2019-02-17T20:32:36.564Z,77.9
2019-02-17T20:37:37.152Z,79.3
2019-02-17T20:42:36.378Z,77.9
2019-02-17T20:47:36.582Z,77.7
2019-02-17T20:52:36.416Z,78.4
2019-02-17T20:57:36.385Z,78
2019-02-17T21:02:36.650Z,77.6
2019-02-17T21:07:36.416Z,79.6
2019-02-17T21:12:36.394Z,78.9
2019-02-17T21:17:36.554Z,78.2
2019-02-17T21:22:36.437Z,78.6
2019-02-17T21:27:36.419Z,78.5
2019-02-17T21:32:36.575Z,79.5
2019-02-17T21:37:36.402Z,78.6
2019-02-17T21:42:36.417Z,78.8
2019-02-17T21:47:38.924Z,78.3
2019-02-17T21:52:36.411Z,78.2
2019-02-17T21:57:36.426Z,77.8
2019-02-17T22:02:36.560Z,78.7
2019-02-17T22:07:36.431Z,78.8
2019-02-17T22:12:36.646Z,78.7
2019-02-17T22:17:36.694Z,79.6
2019-02-17T22:22:36.483Z,79
2019-02-17T22:27:36.673Z,79.4
2019-02-17T22:32:36.435Z,79.6
2019-02-17T22:37:36.451Z,79.5
2019-02-17T22:42:36.436Z,78.9
2019-02-17T22:47:36.449Z,80
2019-02-17T22:52:36.435Z,80.1
2019-02-17T22:57:36.443Z,80.5
2019-02-17T23:02:36.464Z,82.3
2019-02-17T23:07:36.620Z,81.9
2019-02-17T23:12:36.632Z,81.4
2019-02-17T23:17:36.440Z,80.8
2019-02-17T23:22:36.433Z,80.8
2019-02-17T23:27:36.635Z,80.6
2019-02-17T23:32:36.671Z,80.9
2019-02-17T23:37:36.609Z,80.9
2019-02-17T23:42:36.639Z,81.2
2019-02-17T23:47:36.643Z,81
2019-02-17T23:52:37.523Z,80.8
2019-02-17T23:57:36.639Z,81.1
